createdAt,value
2023-01-07T05:13:49.741Z,15.30
2023-01-07T05:28:55.648Z,15.20
2023-01-07T05:44:00.276Z,15.00
2023-01-07T05:59:04.891Z,14.60
2023-01-07T06:14:09.363Z,14.30
2023-01-07T06:29:13.838Z,14.30
2023-01-07T06:44:18.207Z,14.30
2023-01-07T06:59:22.642Z,13.80
2023-01-07T07:14:27.200Z,14.30
2023-01-07T07:29:31.726Z,14.30
2023-01-07T07:44:36.204Z,14.00
2023-01-07T07:59:40.707Z,14.20
2023-01-07T08:14:45.198Z,14.00
2023-01-07T08:29:50.003Z,13.90
2023-01-07T08:44:54.410Z,13.40
2023-01-07T09:00:00.060Z,13.90
2023-01-07T09:15:05.232Z,14.20
2023-01-07T09:30:11.225Z,14.20
2023-01-07T09:45:18.881Z,14.00
2023-01-07T10:00:25.364Z,14.40
2023-01-07T10:15:44.613Z,14.00
2023-01-07T10:30:52.842Z,13.60
2023-01-07T10:46:14.372Z,14.20
2023-01-07T11:01:25.832Z,13.90
2023-01-07T11:16:36.982Z,14.20
2023-01-07T11:31:52.546Z,14.40
2023-01-07T11:46:57.144Z,14.70
2023-01-07T12:02:01.740Z,14.10
2023-01-07T12:17:12.545Z,14.10
2023-01-07T12:32:32.292Z,14.40
2023-01-07T12:47:41.398Z,14.00
2023-01-07T13:02:54.565Z,14.10
2023-01-07T13:18:00.275Z,14.00
2023-01-07T13:33:15.569Z,13.90
2023-01-07T13:48:22.598Z,14.00
2023-01-07T14:03:45.316Z,13.70
2023-01-07T14:19:05.413Z,13.80
2023-01-07T14:34:19.509Z,14.30
2023-01-07T14:50:00.337Z,14.10
2023-01-07T15:05:31.032Z,13.70
2023-01-07T15:20:58.768Z,13.90
2023-01-07T15:36:05.291Z,14.00
2023-01-07T15:51:17.209Z,13.90
2023-01-07T16:06:31.854Z,14.20
2023-01-07T16:21:41.138Z,14.00
2023-01-07T16:36:46.163Z,13.70
2023-01-07T16:51:51.750Z,14.30
2023-01-07T17:06:57.020Z,13.80
2023-01-07T17:22:01.598Z,13.40
2023-01-07T17:37:06.213Z,14.20
2023-01-07T17:52:11.765Z,13.80
2023-01-07T18:07:16.918Z,13.90
2023-01-07T18:22:21.990Z,13.40
2023-01-07T18:37:26.391Z,13.30
2023-01-07T18:52:31.278Z,13.00
2023-01-07T19:07:36.174Z,13.60
2023-01-07T19:22:40.550Z,13.70
2023-01-07T19:37:44.963Z,13.40
2023-01-07T19:52:49.360Z,13.70
2023-01-07T20:07:53.827Z,13.60
2023-01-07T20:22:58.728Z,13.60
2023-01-07T20:38:03.240Z,13.80
2023-01-07T20:53:07.706Z,13.80
2023-01-07T21:08:12.186Z,14.00
2023-01-07T21:23:16.645Z,13.60
2023-01-07T21:38:21.013Z,14.40
2023-01-07T21:53:25.502Z,14.20
